Česky Dansk Deutsch English Español Suomi Français Magyar Italiano Nederlands norsk Polski Português svenska Türkçe

 

Het Weer

Brazzaville / Maya-Maya (Congo)

13:00, 21 augustus 2016 (GMT)

 
WE
 
Home            
Brazzaville / Maya-Maya Kinshasa / N'Djili Mouyondzi Djambala M'Pouya Kenge Sibiti Inga Bandundu Matadi Gamboma Loubomo Makabana Franceville / Mvengue Cabinda Moanda Moanda Pointe-Noire Kikwit Inongo Makoua Lastoursville Tchibanga

Om een weerknop op uw website of weblog te plaatsen, copieer onderstaande code en plak die in uw pagina. In het eerste vakje staat HTML-code, in het tweede vakje UBB-code.


Add to Google

Details

Wind speed:3 bf, 8 kn, 4.1 m/s, 9.2 miles/h, 14.8 km/h
Wind direction:SSW, 200° - W, 270°
Visibility:Greater than 10000 m, 10 km, 32800 ft, 6.2 miles
Clouds:Durchbrochene Bewölkung at 2000 ft, 610 m
Temperature:27°C, 81°F
Gefühlte Temperatur:29°C, 84°F
Dew-point:20°C, 68°F
Atmospheric pressure:1013 hPa, 759.8 mmHg, 29.91 inHg, 1.000 atm
Relative humidity:65.6 %
METAR:FCBB 211300Z 24008KT 200V270 9999 BKN020 27/20 Q1013 NOSIG

Snelkoppelingen

Actuele weersinformatie van de hele wereld. Voeg locaties toe met het plus (+) symbool. Deze snelkoppelingen kunnen worden toegevoegd aan Google.

Lid van de Technetium groep

website free tracking
StatCounter NetStat W3C Validator

21-11-2017 11:24:38
astro.technetium.be money.technetium.be phote.technetium.be tafeltennistafel.technetium.be www.ligfiets.net